Asian Infinity — 3EVP3 — position and weather

sailwx.info

Track history (hours):
 
Tides and Currents Weather Stations Pressure Air Temp Water Temp Dewpoint Dewpoint Depression Visibility Wind Speed Wind Dir Waves Ship Positions

Asian Infinity

Last reported at 2017-Feb-24 04:31 UTC. Time now 2017-Feb-26 03:31 UTC.
Position N 38°21' E 121°18'.

Length 104 m; draft 5.4 m.

Type: Cargo ship. MMSI: 351868000.

Date/timePositionNaut miles runAvg speedWind from/ knotsBaromVisibWave heightAir tempDewpointWater temp
2017-Feb-24 04:31N 38°21' E 121°18'1010.8
2017-Feb-24 03:33N 38°26' E 121°07'1010.3
2017-Feb-24 02:34N 38°32' E 120°56'1010.0
2017-Feb-24 01:33N 38°34' E 120°43'1210.3
2017-Feb-24 00:22N 38°36' E 120°28'6 0.2
2017-Feb-22 13:33N 38°39' E 120°34'1111.0
2017-Feb-22 12:33N 38°37' E 120°47'1110.8
2017-Feb-22 11:32N 38°34' E 121°01'3010.0
2017-Feb-22 08:33N 38°32' E 121°39'9 8.8
2017-Feb-22 07:33N 38°40' E 121°43'1010.2
2017-Feb-22 06:33N 38°50' E 121°45'10 9.4
2017-Feb-22 05:33N 38°60' E 121°46'1 0.1
2017-Feb-21 08:18N 39°01' E 121°45'4 4.9
2017-Feb-21 07:34N 38°57' E 121°46'10 9.6
2017-Feb-21 06:33N 38°48' E 121°50'1712.3
2017-Feb-21 05:11N 38°35' E 122°03'  
2017-Feb-18 23:28N 32°01' E 122°55'1611.5
2017-Feb-18 22:05N 31°45' E 122°53'51 8.6
2017-Feb-18 16:07N 31°01' E 122°22'5 8.3
2017-Feb-18 15:33N 31°02' E 122°17'8 8.1
2017-Feb-18 14:33N 31°03' E 122°08'1110.8
2017-Feb-18 13:34N 31°07' E 121°56'1312.8
2017-Feb-18 12:33N 31°16' E 121°45'1111.4
2017-Feb-18 11:33N 31°23' E 121°35'4 3.4
2017-Feb-18 10:22N 31°21' E 121°31'0 0.0
2017-Feb-18 09:28N 31°21' E 121°31'0 0.0
2017-Feb-18 08:16N 31°21' E 121°31'0 0.0
2017-Feb-18 06:16N 31°21' E 121°31'0 0.0
2017-Feb-18 05:28N 31°21' E 121°31'0 0.0
2017-Feb-18 04:28N 31°21' E 121°31'0 0.0
2017-Feb-18 03:10N 31°21' E 121°31'0 0.0
2017-Feb-18 00:10N 31°21' E 121°31'0 0.3
2017-Feb-17 23:33N 31°21' E 121°31'3 3.0
2017-Feb-17 22:34N 31°24' E 121°32'9 8.7
2017-Feb-17 21:33N 31°20' E 121°41'10 9.9
2017-Feb-17 20:33N 31°12' E 121°49'1111.3
2017-Feb-17 19:34N 31°06' E 121°60'1010.3
2017-Feb-17 18:33N 31°03' E 122°11'  
Track history (hours):
 
Tides and Currents Weather Stations Pressure Air Temp Water Temp Dewpoint Dewpoint Depression Visibility Wind Speed Wind Dir Waves Ship Positions

Asian Infinity

Last reported at 2017-Feb-24 04:31 UTC. Time now 2017-Feb-26 03:31 UTC.
Position N 38°21' E 121°18'.

Length 104 m; draft 5.4 m.

Type: Cargo ship. MMSI: 351868000.

Date/timePositionNaut miles runAvg speedWind from/ knotsBaromVisibWave heightAir tempDewpointWater temp
2017-Feb-24 04:31N 38°21' E 121°18'1010.8
2017-Feb-24 03:33N 38°26' E 121°07'1010.3
2017-Feb-24 02:34N 38°32' E 120°56'1010.0
2017-Feb-24 01:33N 38°34' E 120°43'1210.3
2017-Feb-24 00:22N 38°36' E 120°28'6 0.2
2017-Feb-22 13:33N 38°39' E 120°34'1111.0
2017-Feb-22 12:33N 38°37' E 120°47'1110.8
2017-Feb-22 11:32N 38°34' E 121°01'3010.0
2017-Feb-22 08:33N 38°32' E 121°39'9 8.8
2017-Feb-22 07:33N 38°40' E 121°43'1010.2
2017-Feb-22 06:33N 38°50' E 121°45'10 9.4
2017-Feb-22 05:33N 38°60' E 121°46'1 0.1
2017-Feb-21 08:18N 39°01' E 121°45'4 4.9
2017-Feb-21 07:34N 38°57' E 121°46'10 9.6
2017-Feb-21 06:33N 38°48' E 121°50'1712.3
2017-Feb-21 05:11N 38°35' E 122°03'  
2017-Feb-18 23:28N 32°01' E 122°55'1611.5
2017-Feb-18 22:05N 31°45' E 122°53'51 8.6
2017-Feb-18 16:07N 31°01' E 122°22'5 8.3
2017-Feb-18 15:33N 31°02' E 122°17'8 8.1
2017-Feb-18 14:33N 31°03' E 122°08'1110.8
2017-Feb-18 13:34N 31°07' E 121°56'1312.8
2017-Feb-18 12:33N 31°16' E 121°45'1111.4
2017-Feb-18 11:33N 31°23' E 121°35'4 3.4
2017-Feb-18 10:22N 31°21' E 121°31'0 0.0
2017-Feb-18 09:28N 31°21' E 121°31'0 0.0
2017-Feb-18 08:16N 31°21' E 121°31'0 0.0
2017-Feb-18 06:16N 31°21' E 121°31'0 0.0
2017-Feb-18 05:28N 31°21' E 121°31'0 0.0
2017-Feb-18 04:28N 31°21' E 121°31'0 0.0
2017-Feb-18 03:10N 31°21' E 121°31'0 0.0
2017-Feb-18 00:10N 31°21' E 121°31'0 0.3
2017-Feb-17 23:33N 31°21' E 121°31'3 3.0
2017-Feb-17 22:34N 31°24' E 121°32'9 8.7
2017-Feb-17 21:33N 31°20' E 121°41'10 9.9
2017-Feb-17 20:33N 31°12' E 121°49'1111.3
2017-Feb-17 19:34N 31°06' E 121°60'1010.3
2017-Feb-17 18:33N 31°03' E 122°11'  

Dump ship's entire track history